createdAt,value
2022-12-26T00:01:08.067Z,100.00
2022-12-26T00:03:35.858Z,100.00
2022-12-26T00:06:05.367Z,100.00
2022-12-26T00:08:33.009Z,100.00
2022-12-26T00:11:00.697Z,100.00
2022-12-26T00:13:39.621Z,100.00
2022-12-26T00:16:10.353Z,100.00
2022-12-26T00:18:38.290Z,100.00
2022-12-26T00:21:08.348Z,100.00
2022-12-26T00:23:36.846Z,100.00
2022-12-26T00:26:05.870Z,100.00
2022-12-26T00:28:33.804Z,100.00
2022-12-26T00:31:06.679Z,100.00
2022-12-26T00:33:35.368Z,100.00
2022-12-26T00:36:04.066Z,100.00
2022-12-26T00:38:33.289Z,100.00
2022-12-26T00:41:01.011Z,100.00
2022-12-26T00:43:28.722Z,100.00
2022-12-26T00:45:56.609Z,100.00
2022-12-26T00:48:24.361Z,100.00
2022-12-26T00:50:52.188Z,100.00
2022-12-26T00:53:20.791Z,100.00
2022-12-26T00:55:49.818Z,100.00
2022-12-26T00:58:17.519Z,100.00
2022-12-26T01:00:45.334Z,100.00
2022-12-26T01:03:14.165Z,100.00
2022-12-26T01:05:43.024Z,100.00
2022-12-26T01:08:21.681Z,100.00
2022-12-26T01:10:54.264Z,100.00
2022-12-26T01:13:22.150Z,100.00
2022-12-26T01:15:50.826Z,100.00
2022-12-26T01:18:18.664Z,100.00
2022-12-26T01:20:46.458Z,100.00
2022-12-26T01:23:14.206Z,100.00
2022-12-26T01:26:18.818Z,100.00
2022-12-26T01:28:31.120Z,100.00
2022-12-26T01:31:02.428Z,100.00
2022-12-26T01:33:30.107Z,100.00
2022-12-26T01:35:57.824Z,100.00
2022-12-26T01:38:25.556Z,100.00
2022-12-26T01:41:13.503Z,100.00
2022-12-26T01:43:57.848Z,100.00
2022-12-26T01:46:30.475Z,100.00
2022-12-26T01:49:01.647Z,100.00
2022-12-26T01:51:32.719Z,100.00
2022-12-26T01:54:40.001Z,100.00
2022-12-26T01:56:52.358Z,100.00
2022-12-26T01:59:26.500Z,100.00
2022-12-26T02:01:56.242Z,100.00
2022-12-26T02:04:47.047Z,100.00
2022-12-26T02:07:15.173Z,100.00
2022-12-26T02:09:42.823Z,100.00
2022-12-26T02:12:35.861Z,100.00
2022-12-26T02:15:07.525Z,100.00
2022-12-26T02:17:35.247Z,100.00
2022-12-26T02:20:19.759Z,100.00
2022-12-26T02:23:25.227Z,100.00
2022-12-26T02:26:19.810Z,100.00
2022-12-26T02:29:25.980Z,100.00
2022-12-26T02:32:02.096Z,100.00
2022-12-26T02:34:38.333Z,100.00
2022-12-26T02:37:21.860Z,100.00
2022-12-26T02:40:04.445Z,100.00
2022-12-26T02:42:44.543Z,100.00
2022-12-26T02:45:39.566Z,100.00
2022-12-26T02:48:16.072Z,100.00
2022-12-26T02:51:13.379Z,100.00
2022-12-26T02:54:06.289Z,100.00
2022-12-26T02:56:52.228Z,100.00
2022-12-26T02:59:54.172Z,100.00
2022-12-26T03:02:47.402Z,100.00
2022-12-26T03:05:40.546Z,100.00
2022-12-26T03:08:31.048Z,100.00
2022-12-26T03:11:17.431Z,100.00
2022-12-26T03:13:47.191Z,100.00
2022-12-26T03:16:34.631Z,100.00
2022-12-26T03:19:04.876Z,100.00
2022-12-26T03:21:38.459Z,100.00
2022-12-26T03:24:09.070Z,100.00
2022-12-26T03:26:40.828Z,100.00
2022-12-26T03:29:28.494Z,100.00
2022-12-26T03:31:56.316Z,100.00
2022-12-26T03:34:24.532Z,100.00
2022-12-26T03:37:07.035Z,100.00
2022-12-26T03:40:02.166Z,100.00
2022-12-26T03:42:52.105Z,100.00
2022-12-26T03:45:48.103Z,100.00
2022-12-26T03:48:41.193Z,100.00
2022-12-26T03:51:32.441Z,100.00
2022-12-26T03:54:25.417Z,100.00
2022-12-26T03:57:13.814Z,100.00
2022-12-26T04:00:03.435Z,100.00
2022-12-26T04:02:50.401Z,100.00
2022-12-26T04:05:37.655Z,100.00
2022-12-26T04:08:31.490Z,100.00
2022-12-26T04:11:20.008Z,100.00
2022-12-26T04:14:13.495Z,100.00
2022-12-26T04:17:18.456Z,100.00
2022-12-26T04:19:59.762Z,100.00
2022-12-26T04:22:53.477Z,100.00
2022-12-26T04:25:48.363Z,100.00
2022-12-26T04:28:39.687Z,100.00
2022-12-26T04:31:26.687Z,100.00
2022-12-26T04:34:18.456Z,100.00
2022-12-26T04:37:08.376Z,100.00
2022-12-26T04:39:55.493Z,100.00
2022-12-26T04:42:43.343Z,100.00
2022-12-26T04:45:14.831Z,100.00
2022-12-26T04:48:03.011Z,100.00
2022-12-26T04:50:29.742Z,100.00
2022-12-26T04:52:59.755Z,100.00
2022-12-26T04:55:29.595Z,100.00
2022-12-26T04:57:57.387Z,100.00
2022-12-26T05:00:28.139Z,100.00
2022-12-26T05:03:18.769Z,100.00
2022-12-26T05:06:08.433Z,100.00
2022-12-26T05:08:55.642Z,100.00
2022-12-26T05:11:23.686Z,100.00
2022-12-26T05:13:52.509Z,100.00
2022-12-26T05:16:39.340Z,100.00
2022-12-26T05:19:25.309Z,100.00
2022-12-26T05:22:10.559Z,100.00
2022-12-26T05:24:59.450Z,100.00
2022-12-26T05:27:52.390Z,100.00
2022-12-26T05:30:20.204Z,100.00
2022-12-26T05:33:06.529Z,100.00
2022-12-26T05:35:36.180Z,100.00
2022-12-26T05:38:04.531Z,100.00
2022-12-26T05:40:32.546Z,100.00
2022-12-26T05:43:00.305Z,100.00
2022-12-26T05:45:27.991Z,100.00
2022-12-26T05:48:00.521Z,100.00
2022-12-26T05:50:28.784Z,100.00
2022-12-26T05:52:57.704Z,100.00
2022-12-26T05:55:25.946Z,100.00
2022-12-26T05:57:53.749Z,100.00
2022-12-26T06:00:21.554Z,100.00
2022-12-26T06:02:49.937Z,100.00
2022-12-26T06:05:19.105Z,100.00
2022-12-26T06:07:46.794Z,100.00
2022-12-26T06:10:14.557Z,100.00
2022-12-26T06:12:42.216Z,100.00
2022-12-26T06:15:10.865Z,100.00
2022-12-26T06:17:38.563Z,100.00
2022-12-26T06:20:07.398Z,100.00
2022-12-26T06:22:36.494Z,100.00
2022-12-26T06:25:04.263Z,100.00
2022-12-26T06:27:31.953Z,100.00
2022-12-26T06:29:59.651Z,100.00
2022-12-26T06:32:27.332Z,100.00
2022-12-26T06:34:55.057Z,100.00
2022-12-26T06:37:22.697Z,100.00
2022-12-26T06:39:51.741Z,100.00
2022-12-26T06:42:19.421Z,100.00
2022-12-26T06:44:47.077Z,100.00
2022-12-26T06:47:14.796Z,100.00
2022-12-26T06:49:42.500Z,100.00
2022-12-26T06:52:12.039Z,100.00
2022-12-26T06:54:39.756Z,100.00
2022-12-26T06:57:08.850Z,100.00
2022-12-26T06:59:36.544Z,100.00
2022-12-26T07:02:04.290Z,100.00
2022-12-26T07:04:32.011Z,100.00
2022-12-26T07:06:59.663Z,100.00
2022-12-26T07:09:33.435Z,100.00
2022-12-26T07:12:02.018Z,100.00
2022-12-26T07:14:31.089Z,100.00
2022-12-26T07:16:58.759Z,100.00
2022-12-26T07:19:26.519Z,99.57
2022-12-26T07:21:54.161Z,99.69
2022-12-26T07:24:23.422Z,99.55
2022-12-26T07:26:51.331Z,99.63
2022-12-26T07:29:19.359Z,99.98
2022-12-26T07:31:48.486Z,99.86
2022-12-26T07:34:16.515Z,99.29
2022-12-26T07:36:44.215Z,98.77
2022-12-26T07:39:14.272Z,99.18
2022-12-26T07:42:00.120Z,98.59
2022-12-26T07:44:29.321Z,98.60
2022-12-26T07:46:59.015Z,99.22
2022-12-26T07:49:28.238Z,99.40
2022-12-26T07:51:55.817Z,98.28
2022-12-26T07:54:23.606Z,99.34
2022-12-26T07:56:51.287Z,98.52
2022-12-26T07:59:19.163Z,99.28
2022-12-26T08:01:47.001Z,99.44
2022-12-26T08:04:16.139Z,98.91
2022-12-26T08:06:43.830Z,98.92
2022-12-26T08:09:15.896Z,99.08
2022-12-26T08:11:45.431Z,97.87
2022-12-26T08:14:16.713Z,98.51
2022-12-26T08:16:49.678Z,98.32
2022-12-26T08:19:22.138Z,98.43
2022-12-26T08:21:49.818Z,99.04
2022-12-26T08:24:17.605Z,99.37
2022-12-26T08:26:45.257Z,99.57
2022-12-26T08:29:13.077Z,99.64
2022-12-26T08:31:40.882Z,99.30
2022-12-26T08:34:09.875Z,98.78
2022-12-26T08:36:39.239Z,98.86
2022-12-26T08:39:07.003Z,99.05
2022-12-26T08:41:34.740Z,99.46
2022-12-26T08:46:50.107Z,99.05
2022-12-26T08:49:17.918Z,99.27
2022-12-26T08:51:46.974Z,98.52
2022-12-26T08:54:14.673Z,98.45
2022-12-26T08:56:42.370Z,98.22
2022-12-26T08:59:10.033Z,98.10
2022-12-26T09:01:38.885Z,98.35
2022-12-26T09:04:07.604Z,97.99
2022-12-26T09:06:37.287Z,98.52
2022-12-26T09:09:07.367Z,98.56
2022-12-26T09:11:35.411Z,98.81
2022-12-26T09:14:04.679Z,98.71
2022-12-26T09:16:39.269Z,99.22
2022-12-26T09:19:07.834Z,99.01
2022-12-26T09:21:35.485Z,99.10
2022-12-26T09:24:05.452Z,98.70
2022-12-26T09:26:34.591Z,98.24
2022-12-26T09:29:02.278Z,98.12
2022-12-26T09:31:32.244Z,98.46
2022-12-26T09:34:00.331Z,98.75
2022-12-26T09:36:31.261Z,98.98
2022-12-26T09:38:59.822Z,99.07
2022-12-26T09:41:47.570Z,98.90
2022-12-26T09:44:20.559Z,99.25
2022-12-26T09:46:57.070Z,98.70
2022-12-26T09:49:29.049Z,98.44
2022-12-26T09:52:00.139Z,98.39
2022-12-26T09:54:32.830Z,98.38
2022-12-26T09:57:11.276Z,98.31
2022-12-26T09:59:48.630Z,95.24
2022-12-26T10:02:19.969Z,95.66
2022-12-26T10:04:48.212Z,95.42
2022-12-26T10:07:28.208Z,96.04
2022-12-26T10:10:04.552Z,96.55
2022-12-26T10:12:47.434Z,94.16
2022-12-26T10:15:35.535Z,94.97
2022-12-26T10:18:16.906Z,93.56
2022-12-26T10:20:55.472Z,92.84
2022-12-26T10:23:34.334Z,93.39
2022-12-26T10:26:12.085Z,93.79
2022-12-26T10:28:46.091Z,94.18
2022-12-26T10:31:20.017Z,92.83
2022-12-26T10:33:56.895Z,93.46
2022-12-26T10:36:35.271Z,93.47
2022-12-26T10:39:06.954Z,93.04
2022-12-26T10:41:41.132Z,92.86
2022-12-26T10:44:12.683Z,94.19
2022-12-26T10:47:15.301Z,91.47
2022-12-26T10:49:46.091Z,93.32
2022-12-26T10:52:15.524Z,92.61
2022-12-26T10:54:43.400Z,93.06
2022-12-26T10:57:11.320Z,92.62
2022-12-26T10:59:47.092Z,92.50
2022-12-26T11:02:23.237Z,92.43
2022-12-26T11:05:15.988Z,90.36
2022-12-26T11:07:58.480Z,92.04
2022-12-26T11:10:30.266Z,92.88
2022-12-26T11:13:02.459Z,91.79
2022-12-26T11:15:35.094Z,90.86
2022-12-26T11:18:17.838Z,90.81
2022-12-26T11:20:46.156Z,91.78
2022-12-26T11:23:25.592Z,90.90
2022-12-26T11:25:55.110Z,89.91
2022-12-26T11:28:30.211Z,89.01
2022-12-26T11:31:01.004Z,89.40
2022-12-26T11:33:31.632Z,89.54
2022-12-26T11:36:13.034Z,90.15
2022-12-26T11:38:49.392Z,85.72
2022-12-26T11:41:36.820Z,87.04
2022-12-26T11:44:17.703Z,87.77
2022-12-26T11:46:50.959Z,89.02
2022-12-26T11:49:23.689Z,89.52
2022-12-26T11:51:58.827Z,90.24
2022-12-26T11:54:34.581Z,88.66
2022-12-26T11:57:20.220Z,80.89
2022-12-26T11:59:49.241Z,87.90
2022-12-26T12:02:23.782Z,88.95
2022-12-26T12:04:54.213Z,86.06
2022-12-26T12:07:43.909Z,80.32
2022-12-26T12:10:35.209Z,79.12
2022-12-26T12:13:08.641Z,81.45
2022-12-26T12:15:45.307Z,81.66
2022-12-26T12:18:22.867Z,79.38
2022-12-26T12:21:01.745Z,78.06
2022-12-26T12:23:43.827Z,80.18
2022-12-26T12:26:16.102Z,80.41
2022-12-26T12:29:01.174Z,81.56
2022-12-26T12:31:41.579Z,79.33
2022-12-26T12:34:23.275Z,80.31
2022-12-26T12:37:02.256Z,76.91
2022-12-26T12:39:40.695Z,78.17
2022-12-26T12:42:29.575Z,76.81
2022-12-26T12:45:10.406Z,75.07
2022-12-26T12:47:50.842Z,79.60
2022-12-26T12:50:26.373Z,79.47
2022-12-26T12:53:06.422Z,74.83
2022-12-26T12:55:44.625Z,78.80
2022-12-26T12:58:23.291Z,75.12
2022-12-26T13:00:54.928Z,79.30
2022-12-26T13:03:30.648Z,77.76
2022-12-26T13:06:05.962Z,76.72
2022-12-26T13:08:40.157Z,77.65
2022-12-26T13:11:12.185Z,77.48
2022-12-26T13:13:53.226Z,77.81
2022-12-26T13:16:23.598Z,59.30
2022-12-26T13:18:54.578Z,79.25
2022-12-26T13:21:24.003Z,78.99
2022-12-26T13:24:13.777Z,79.29
2022-12-26T13:26:44.926Z,78.93
2022-12-26T13:29:16.942Z,79.24
2022-12-26T13:31:46.321Z,78.16
2022-12-26T13:34:17.950Z,78.29
2022-12-26T13:36:49.319Z,78.76
2022-12-26T13:39:41.766Z,73.42
2022-12-26T13:42:51.211Z,67.65
2022-12-26T13:45:47.448Z,64.68
2022-12-26T13:48:56.975Z,66.53
2022-12-26T13:51:44.786Z,62.35
2022-12-26T13:54:15.134Z,77.95
2022-12-26T13:57:19.567Z,62.17
2022-12-26T13:59:59.647Z,73.01
2022-12-26T14:03:17.411Z,61.87
2022-12-26T14:05:59.180Z,75.00
2022-12-26T14:08:37.626Z,78.42
2022-12-26T14:11:23.415Z,75.00
2022-12-26T14:14:06.448Z,77.73
2022-12-26T14:16:42.732Z,78.09
2022-12-26T14:19:31.357Z,75.99
2022-12-26T14:22:06.037Z,78.14
2022-12-26T14:24:44.476Z,78.02
2022-12-26T14:27:27.689Z,74.32
2022-12-26T14:30:05.787Z,79.78
2022-12-26T14:32:43.467Z,80.86
2022-12-26T14:35:19.814Z,80.58
2022-12-26T14:37:58.773Z,77.73
2022-12-26T14:40:33.596Z,80.23
2022-12-26T14:43:11.724Z,80.03
2022-12-26T14:45:43.278Z,80.49
2022-12-26T14:48:46.869Z,73.94
2022-12-26T14:51:39.614Z,76.63
2022-12-26T14:54:50.872Z,70.49
2022-12-26T14:57:47.711Z,77.12
2022-12-26T15:00:34.917Z,73.09
2022-12-26T15:03:38.133Z,78.53
2022-12-26T15:06:36.198Z,81.03
2022-12-26T15:09:15.952Z,79.41
2022-12-26T15:12:14.411Z,78.08
2022-12-26T15:15:19.682Z,80.05
2022-12-26T15:18:04.737Z,80.84
2022-12-26T15:21:05.433Z,79.83
2022-12-26T15:24:04.620Z,79.94
2022-12-26T15:26:59.580Z,82.64
2022-12-26T15:29:47.501Z,81.96
2022-12-26T15:32:21.809Z,84.41
2022-12-26T15:34:58.814Z,84.73
2022-12-26T15:37:42.543Z,82.89
2022-12-26T15:40:15.823Z,84.26
2022-12-26T15:42:55.858Z,83.95
2022-12-26T15:45:39.117Z,84.66
2022-12-26T15:48:18.394Z,84.72
2022-12-26T15:50:56.130Z,86.09
2022-12-26T15:53:33.680Z,86.11
2022-12-26T15:56:26.312Z,85.53
2022-12-26T15:59:17.200Z,84.01
2022-12-26T16:01:48.824Z,85.58
2022-12-26T16:04:22.349Z,85.81
2022-12-26T16:07:20.460Z,84.91
2022-12-26T16:09:51.811Z,85.73
2022-12-26T16:12:26.100Z,86.49
2022-12-26T16:15:16.818Z,85.63
2022-12-26T16:17:46.577Z,86.95
2022-12-26T16:20:40.358Z,86.53
2022-12-26T16:23:14.134Z,87.07
2022-12-26T16:25:46.998Z,87.48
2022-12-26T16:28:15.010Z,86.98
2022-12-26T16:30:43.466Z,87.90
2022-12-26T16:33:14.250Z,88.10
2022-12-26T16:35:43.825Z,88.48
2022-12-26T16:38:16.768Z,87.70
2022-12-26T16:40:45.945Z,87.88
2022-12-26T16:43:27.215Z,87.30
2022-12-26T16:45:58.711Z,87.39
2022-12-26T16:48:29.163Z,87.64
2022-12-26T16:50:58.978Z,88.10
2022-12-26T16:53:43.463Z,86.80
2022-12-26T16:56:27.593Z,87.42
2022-12-26T16:59:04.026Z,88.14
2022-12-26T17:01:33.468Z,87.96
2022-12-26T17:04:04.793Z,88.40
2022-12-26T17:06:35.306Z,87.98
2022-12-26T17:09:10.759Z,89.55
2022-12-26T17:11:46.166Z,88.68
2022-12-26T17:14:20.755Z,88.63
2022-12-26T17:16:48.501Z,89.10
2022-12-26T17:19:19.658Z,87.92
2022-12-26T17:22:21.764Z,88.38
2022-12-26T17:24:52.336Z,88.37
2022-12-26T17:27:23.384Z,89.24
2022-12-26T17:29:57.793Z,89.82
2022-12-26T17:32:35.863Z,89.45
2022-12-26T17:35:07.371Z,89.18
2022-12-26T17:37:35.400Z,89.96
2022-12-26T17:40:21.015Z,90.03
2022-12-26T17:42:50.767Z,88.45
2022-12-26T17:45:20.586Z,88.02
2022-12-26T17:47:48.390Z,87.40
2022-12-26T17:50:16.181Z,88.66
2022-12-26T17:52:44.011Z,88.62
2022-12-26T17:55:19.765Z,89.13
2022-12-26T17:57:47.503Z,88.33
2022-12-26T18:00:21.057Z,87.55
2022-12-26T18:02:49.418Z,87.35
2022-12-26T18:05:17.673Z,88.26
2022-12-26T18:07:46.375Z,86.87
2022-12-26T18:10:21.564Z,88.83
2022-12-26T18:12:50.027Z,87.77
2022-12-26T18:15:18.372Z,88.67
2022-12-26T18:17:46.357Z,86.55
2022-12-26T18:20:18.141Z,89.17
2022-12-26T18:22:47.609Z,89.05
2022-12-26T18:25:16.654Z,88.01
2022-12-26T18:27:46.210Z,88.95
2022-12-26T18:30:18.153Z,89.21
2022-12-26T18:32:46.876Z,88.57
2022-12-26T18:35:14.916Z,89.38
2022-12-26T18:37:45.529Z,89.95
2022-12-26T18:40:29.737Z,89.37
2022-12-26T18:42:58.821Z,89.15
2022-12-26T18:45:26.871Z,90.05
2022-12-26T18:47:54.697Z,89.07
2022-12-26T18:50:23.059Z,89.44
2022-12-26T18:52:53.774Z,85.46
2022-12-26T18:55:22.496Z,88.03
2022-12-26T18:57:50.657Z,88.86
2022-12-26T19:00:21.163Z,86.65
2022-12-26T19:02:49.362Z,87.84
2022-12-26T19:05:19.417Z,88.35
2022-12-26T19:07:48.408Z,88.49
2022-12-26T19:10:17.611Z,89.70
2022-12-26T19:12:45.992Z,88.43
2022-12-26T19:15:13.935Z,86.30
2022-12-26T19:17:43.757Z,88.99
2022-12-26T19:20:22.327Z,89.24
2022-12-26T19:22:50.974Z,90.14
2022-12-26T19:25:20.706Z,90.04
2022-12-26T19:27:49.550Z,89.35
2022-12-26T19:30:18.282Z,89.40
2022-12-26T19:32:47.846Z,90.24
2022-12-26T19:35:16.459Z,88.78
2022-12-26T19:37:44.488Z,89.58
2022-12-26T19:40:13.199Z,89.68
2022-12-26T19:42:40.989Z,89.65
2022-12-26T19:45:10.747Z,89.06
2022-12-26T19:47:38.782Z,89.40
2022-12-26T19:50:09.537Z,89.08
2022-12-26T19:52:38.783Z,88.03
2022-12-26T19:55:07.957Z,89.30
2022-12-26T19:57:35.691Z,88.37
2022-12-26T20:00:03.367Z,88.99
2022-12-26T20:02:31.184Z,89.09
2022-12-26T20:04:58.901Z,88.41
2022-12-26T20:07:27.940Z,89.58
2022-12-26T20:09:55.749Z,89.74
2022-12-26T20:12:23.427Z,87.70
2022-12-26T20:14:51.226Z,88.80
2022-12-26T20:17:18.992Z,88.96
2022-12-26T20:19:47.566Z,88.75
2022-12-26T20:22:15.289Z,88.50
2022-12-26T20:24:46.734Z,88.73
2022-12-26T20:27:15.824Z,88.40
2022-12-26T20:29:43.520Z,88.56
2022-12-26T20:32:11.349Z,88.30
2022-12-26T20:34:39.291Z,88.03
2022-12-26T20:37:07.053Z,87.68
2022-12-26T20:39:34.729Z,87.85
2022-12-26T20:42:03.791Z,87.27
2022-12-26T20:44:31.456Z,89.24
2022-12-26T20:46:59.130Z,88.10
2022-12-26T20:49:26.851Z,87.48
2022-12-26T20:51:54.526Z,87.52
2022-12-26T20:54:22.709Z,88.61
2022-12-26T20:56:50.343Z,88.64
2022-12-26T20:59:19.552Z,87.56
2022-12-26T21:01:47.249Z,88.77
2022-12-26T21:04:19.042Z,88.59
2022-12-26T21:06:47.552Z,88.64
2022-12-26T21:09:15.738Z,86.85
2022-12-26T21:11:45.301Z,87.34
2022-12-26T21:14:14.602Z,86.66
2022-12-26T21:16:45.990Z,88.13
2022-12-26T21:19:15.560Z,87.26
2022-12-26T21:21:45.144Z,87.83
2022-12-26T21:24:14.826Z,88.37
2022-12-26T21:26:43.736Z,88.57
2022-12-26T21:29:14.775Z,88.10
2022-12-26T21:31:43.848Z,87.81
2022-12-26T21:34:15.279Z,87.69
2022-12-26T21:37:03.271Z,86.77
2022-12-26T21:39:31.307Z,88.03
2022-12-26T21:41:59.110Z,86.91
2022-12-26T21:44:26.836Z,87.10
2022-12-26T21:46:56.039Z,87.31
2022-12-26T21:49:23.943Z,88.36
2022-12-26T21:51:51.608Z,87.24
2022-12-26T21:54:36.713Z,87.18
2022-12-26T21:57:04.661Z,87.91
2022-12-26T21:59:49.763Z,87.25
2022-12-26T22:02:32.914Z,87.69
2022-12-26T22:05:01.362Z,87.83
2022-12-26T22:07:29.435Z,87.79
2022-12-26T22:09:57.225Z,88.05
2022-12-26T22:12:42.429Z,88.63
2022-12-26T22:15:31.867Z,88.45
2022-12-26T22:18:00.947Z,88.31
2022-12-26T22:20:28.787Z,87.43
2022-12-26T22:22:56.758Z,89.05
2022-12-26T22:25:24.398Z,87.47
2022-12-26T22:27:52.222Z,88.79
2022-12-26T22:30:20.077Z,88.88
2022-12-26T22:32:47.733Z,89.11
2022-12-26T22:35:18.945Z,88.50
2022-12-26T22:37:46.780Z,89.42
2022-12-26T22:40:14.680Z,88.95
2022-12-26T22:42:42.445Z,89.18
2022-12-26T22:45:10.799Z,88.85
2022-12-26T22:47:38.633Z,89.35
2022-12-26T22:50:07.008Z,89.46
2022-12-26T22:52:36.079Z,90.43
2022-12-26T22:55:04.068Z,90.19
2022-12-26T22:57:31.792Z,89.95
2022-12-26T23:00:08.764Z,89.46
2022-12-26T23:02:37.732Z,89.22
2022-12-26T23:05:06.626Z,89.50
2022-12-26T23:07:36.265Z,89.94
2022-12-26T23:10:05.162Z,89.87
2022-12-26T23:12:45.411Z,89.67
2022-12-26T23:15:15.586Z,90.22
2022-12-26T23:18:16.761Z,90.80
2022-12-26T23:21:02.393Z,89.78
2022-12-26T23:23:32.113Z,90.83
2022-12-26T23:26:01.640Z,90.49
2022-12-26T23:28:46.973Z,90.68
2022-12-26T23:31:14.840Z,90.52
2022-12-26T23:33:42.587Z,91.07
2022-12-26T23:36:10.486Z,91.18
2022-12-26T23:38:39.542Z,90.63
2022-12-26T23:41:07.196Z,91.32
2022-12-26T23:43:34.845Z,91.53
2022-12-26T23:46:02.495Z,91.02
2022-12-26T23:48:30.203Z,91.50
2022-12-26T23:51:05.077Z,91.63
2022-12-26T23:53:33.033Z,91.85
2022-12-26T23:56:02.015Z,91.29
2022-12-26T23:58:29.807Z,91.62
